createdAt,value
2022-10-26T00:00:33.568Z,2.40
2022-10-26T00:03:00.462Z,2.43
2022-10-26T00:05:34.333Z,2.50
2022-10-26T00:08:03.565Z,2.53
2022-10-26T00:10:31.723Z,2.80
2022-10-26T00:12:58.909Z,2.40
2022-10-26T00:15:29.931Z,3.00
2022-10-26T00:17:58.974Z,2.70
2022-10-26T00:20:35.686Z,2.90
2022-10-26T00:23:02.964Z,3.13
2022-10-26T00:25:30.085Z,2.63
2022-10-26T00:27:57.139Z,2.83
2022-10-26T00:30:25.248Z,2.60
2022-10-26T00:32:53.470Z,2.63
2022-10-26T00:35:23.913Z,2.53
2022-10-26T00:37:56.302Z,2.40
2022-10-26T00:40:29.652Z,2.80
2022-10-26T00:43:06.676Z,2.90
2022-10-26T00:45:33.617Z,2.50
2022-10-26T00:48:18.425Z,2.40
2022-10-26T00:50:49.513Z,2.77
2022-10-26T00:53:17.792Z,2.70
2022-10-26T00:55:47.938Z,2.63
2022-10-26T00:58:16.114Z,2.60
2022-10-26T01:00:43.962Z,2.50
2022-10-26T01:03:12.665Z,2.60
2022-10-26T01:05:42.450Z,2.87
2022-10-26T01:08:10.542Z,2.50
2022-10-26T01:10:41.002Z,2.70
2022-10-26T01:13:08.284Z,2.37
2022-10-26T01:16:11.936Z,2.47
2022-10-26T01:19:18.755Z,2.50
2022-10-26T01:22:21.418Z,2.73
2022-10-26T01:25:18.652Z,2.50
2022-10-26T01:28:11.940Z,2.60
2022-10-26T01:30:49.154Z,2.70
2022-10-26T01:33:34.652Z,2.67
2022-10-26T01:36:25.903Z,2.70
2022-10-26T01:39:00.287Z,2.80
2022-10-26T01:41:41.141Z,2.87
2022-10-26T01:44:14.666Z,2.80
2022-10-26T01:46:47.091Z,3.00
2022-10-26T01:49:17.414Z,2.80
2022-10-26T01:51:50.021Z,2.90
2022-10-26T01:57:07.213Z,2.70
2022-10-26T01:59:56.788Z,2.77
2022-10-26T02:02:38.321Z,2.37
2022-10-26T02:05:27.817Z,2.57
2022-10-26T02:08:41.201Z,2.33
2022-10-26T02:11:32.616Z,2.80
2022-10-26T02:14:09.120Z,2.30
2022-10-26T02:16:50.554Z,2.60
2022-10-26T02:19:35.407Z,2.87
2022-10-26T02:22:19.649Z,3.00
2022-10-26T02:25:08.355Z,2.63
2022-10-26T02:27:41.018Z,2.50
2022-10-26T02:30:10.577Z,3.10
2022-10-26T02:32:41.854Z,2.70
2022-10-26T02:35:09.723Z,2.47
2022-10-26T02:37:38.831Z,2.53
2022-10-26T02:40:12.338Z,2.60
2022-10-26T02:42:44.841Z,2.87
2022-10-26T02:45:17.783Z,2.40
2022-10-26T02:47:47.213Z,2.40
2022-10-26T02:50:15.272Z,2.60
2022-10-26T02:52:59.157Z,2.73
2022-10-26T02:55:30.503Z,2.27
2022-10-26T02:58:07.231Z,2.80
2022-10-26T03:00:34.565Z,2.50
2022-10-26T03:03:04.690Z,2.77
2022-10-26T03:05:33.346Z,2.43
2022-10-26T03:08:00.773Z,2.30
2022-10-26T03:10:28.069Z,2.70
2022-10-26T03:12:55.073Z,2.47
2022-10-26T03:15:22.101Z,3.00
2022-10-26T03:17:49.586Z,2.43
2022-10-26T03:20:17.004Z,2.60
2022-10-26T03:22:47.884Z,2.50
2022-10-26T03:25:15.814Z,2.63
2022-10-26T03:27:46.090Z,2.73
2022-10-26T03:30:13.271Z,2.20
2022-10-26T03:32:40.188Z,2.50
2022-10-26T03:35:07.442Z,2.20
2022-10-26T03:37:34.322Z,2.73
2022-10-26T03:40:01.182Z,2.30
2022-10-26T03:42:33.818Z,2.70
2022-10-26T03:45:00.679Z,2.57
2022-10-26T03:47:27.964Z,2.87
2022-10-26T03:49:56.065Z,2.60
2022-10-26T03:52:24.278Z,2.23
2022-10-26T03:54:52.300Z,2.80
2022-10-26T03:57:20.456Z,2.30
2022-10-26T03:59:47.331Z,2.60
2022-10-26T04:02:15.351Z,2.63
2022-10-26T04:04:42.310Z,2.47
2022-10-26T04:07:09.253Z,2.50
2022-10-26T04:09:36.145Z,2.87
2022-10-26T04:12:03.275Z,2.40
2022-10-26T04:14:30.415Z,2.43
2022-10-26T04:16:57.287Z,2.50
2022-10-26T04:19:24.942Z,2.47
2022-10-26T04:21:53.261Z,2.57
2022-10-26T04:24:20.215Z,2.37
2022-10-26T04:26:48.100Z,2.50
2022-10-26T04:29:15.152Z,2.67
2022-10-26T04:34:14.266Z,2.50
2022-10-26T04:36:41.169Z,2.50
2022-10-26T04:39:08.129Z,2.83
2022-10-26T04:41:35.054Z,2.30
2022-10-26T04:44:01.943Z,2.27
2022-10-26T04:46:28.795Z,2.30
2022-10-26T04:48:55.727Z,2.60
2022-10-26T04:51:25.366Z,2.60
2022-10-26T04:53:55.051Z,2.30
2022-10-26T04:56:22.124Z,2.70
2022-10-26T04:58:49.278Z,2.40
2022-10-26T05:01:16.289Z,2.40
2022-10-26T05:03:43.159Z,2.73
2022-10-26T05:06:10.237Z,2.57
2022-10-26T05:08:37.311Z,2.67
2022-10-26T05:11:04.270Z,3.00
2022-10-26T05:13:32.519Z,2.83
2022-10-26T05:15:59.467Z,2.60
2022-10-26T05:18:26.486Z,2.63
2022-10-26T05:20:54.499Z,2.80
2022-10-26T05:23:22.101Z,2.80
2022-10-26T05:25:49.781Z,2.60
2022-10-26T05:28:18.908Z,2.90
2022-10-26T05:30:46.695Z,2.60
2022-10-26T05:33:14.899Z,2.67
2022-10-26T05:35:41.998Z,2.40
2022-10-26T05:38:15.290Z,2.73
2022-10-26T05:40:53.235Z,2.40
2022-10-26T05:43:21.689Z,2.57
2022-10-26T05:45:51.088Z,2.40
2022-10-26T05:48:17.988Z,2.53
2022-10-26T05:50:45.254Z,2.80
2022-10-26T05:53:12.405Z,2.80
2022-10-26T05:55:39.794Z,3.27
2022-10-26T05:58:13.381Z,4.23
2022-10-26T06:01:01.394Z,5.20
2022-10-26T06:03:41.936Z,3.87
2022-10-26T06:06:13.413Z,9.40
2022-10-26T06:08:43.067Z,16.92
2022-10-26T06:11:10.639Z,7.67
2022-10-26T06:13:37.790Z,6.70
2022-10-26T06:16:07.560Z,7.37
2022-10-26T06:18:50.577Z,7.03
2022-10-26T06:21:44.429Z,7.07
2022-10-26T06:24:14.106Z,6.73
2022-10-26T06:27:36.875Z,7.30
2022-10-26T06:30:12.187Z,6.83
2022-10-26T06:32:45.938Z,6.80
2022-10-26T06:35:27.246Z,5.70
2022-10-26T06:37:57.067Z,23.90
2022-10-26T06:40:24.933Z,14.97
2022-10-26T06:42:52.330Z,15.20
2022-10-26T06:45:19.706Z,13.20
2022-10-26T06:47:55.629Z,12.00
2022-10-26T06:50:45.077Z,10.53
2022-10-26T06:53:25.496Z,10.60
2022-10-26T06:55:53.313Z,9.17
2022-10-26T06:58:23.330Z,9.60
2022-10-26T07:00:53.648Z,8.97
2022-10-26T07:03:20.746Z,9.07
2022-10-26T07:05:48.260Z,8.50
2022-10-26T07:08:15.249Z,9.00
2022-10-26T07:10:42.909Z,8.20
2022-10-26T07:13:10.966Z,8.50
2022-10-26T07:15:39.704Z,8.13
2022-10-26T07:18:08.022Z,8.00
2022-10-26T07:20:39.708Z,7.40
2022-10-26T07:23:08.477Z,7.47
2022-10-26T07:25:39.017Z,7.10
2022-10-26T07:28:09.010Z,7.23
2022-10-26T07:30:36.771Z,6.30
2022-10-26T07:33:09.834Z,6.63
2022-10-26T07:35:36.820Z,6.43
2022-10-26T07:38:04.614Z,6.40
2022-10-26T07:40:31.889Z,6.40
2022-10-26T07:43:00.751Z,6.13
2022-10-26T07:45:29.701Z,6.73
2022-10-26T07:47:57.321Z,6.70
2022-10-26T07:50:24.972Z,6.30
2022-10-26T07:52:52.444Z,6.60
2022-10-26T07:55:20.340Z,6.47
2022-10-26T07:57:49.767Z,5.93
2022-10-26T08:00:21.733Z,5.83
2022-10-26T08:02:48.812Z,6.03
2022-10-26T08:05:15.774Z,5.63
2022-10-26T08:07:46.203Z,6.30
2022-10-26T08:10:14.490Z,5.80
2022-10-26T08:12:42.647Z,6.43
2022-10-26T08:15:10.248Z,5.53
2022-10-26T08:17:37.225Z,5.93
2022-10-26T08:20:04.580Z,5.10
2022-10-26T08:22:31.657Z,5.70
2022-10-26T08:24:58.645Z,5.20
2022-10-26T08:27:26.001Z,5.30
2022-10-26T08:29:52.947Z,5.40
2022-10-26T08:32:19.893Z,5.70
2022-10-26T08:34:46.833Z,5.90
2022-10-26T08:37:13.812Z,5.60
2022-10-26T08:39:40.820Z,5.00
2022-10-26T08:42:15.069Z,4.80
2022-10-26T08:44:51.606Z,5.43
2022-10-26T08:47:22.580Z,5.23
2022-10-26T08:50:19.331Z,4.83
2022-10-26T08:53:21.734Z,4.77
2022-10-26T08:55:59.787Z,5.17
2022-10-26T08:58:32.423Z,5.03
2022-10-26T09:00:59.634Z,4.83
2022-10-26T09:03:26.626Z,4.93
2022-10-26T09:06:05.088Z,4.70
2022-10-26T09:08:56.689Z,5.03
2022-10-26T09:11:46.788Z,4.60
2022-10-26T09:14:17.386Z,4.63
2022-10-26T09:17:33.411Z,4.43
2022-10-26T09:20:46.265Z,4.60
2022-10-26T09:23:28.473Z,4.90
2022-10-26T09:26:01.530Z,4.67
2022-10-26T09:28:35.524Z,4.47
2022-10-26T09:31:04.241Z,4.30
2022-10-26T09:33:37.254Z,4.10
2022-10-26T09:36:13.144Z,4.50
2022-10-26T09:39:04.815Z,4.20
2022-10-26T09:41:39.937Z,4.93
2022-10-26T09:44:26.269Z,4.20
2022-10-26T09:46:58.909Z,4.33
2022-10-26T09:49:36.006Z,4.33
2022-10-26T09:52:04.657Z,4.50
2022-10-26T09:54:31.606Z,3.87
2022-10-26T09:57:02.368Z,4.70
2022-10-26T09:59:30.920Z,3.70
2022-10-26T10:01:57.956Z,3.90
2022-10-26T10:04:26.260Z,4.10
2022-10-26T10:07:14.218Z,4.03
2022-10-26T10:09:41.526Z,3.93
2022-10-26T10:12:20.380Z,3.90
2022-10-26T10:14:59.388Z,4.10
2022-10-26T10:17:27.119Z,4.23
2022-10-26T10:19:54.269Z,3.93
2022-10-26T10:22:25.412Z,3.80
2022-10-26T10:25:02.141Z,4.40
2022-10-26T10:27:30.931Z,4.33
2022-10-26T10:30:24.110Z,4.20
2022-10-26T10:33:10.886Z,3.70
2022-10-26T10:35:47.072Z,4.53
2022-10-26T10:38:19.877Z,3.83
2022-10-26T10:40:59.057Z,3.90
2022-10-26T10:43:27.394Z,4.10
2022-10-26T10:45:59.603Z,3.70
2022-10-26T10:48:29.338Z,4.03
2022-10-26T10:51:00.515Z,3.70
2022-10-26T10:53:45.735Z,3.70
2022-10-26T10:56:38.423Z,3.57
2022-10-26T10:59:26.293Z,4.23
2022-10-26T11:02:18.206Z,3.90
2022-10-26T11:05:26.337Z,3.73
2022-10-26T11:08:10.416Z,3.93
2022-10-26T11:10:47.381Z,3.83
2022-10-26T11:13:27.581Z,3.70
2022-10-26T11:16:04.655Z,3.60
2022-10-26T11:18:37.261Z,3.60
2022-10-26T11:21:15.601Z,3.70
2022-10-26T11:23:58.077Z,3.90
2022-10-26T11:26:35.657Z,3.47
2022-10-26T11:29:12.038Z,3.60
2022-10-26T11:31:44.176Z,3.60
2022-10-26T11:34:19.954Z,3.40
2022-10-26T11:36:52.457Z,3.97
2022-10-26T11:39:45.681Z,4.00
2022-10-26T11:43:04.728Z,3.47
2022-10-26T11:45:39.315Z,3.47
2022-10-26T11:48:52.385Z,3.60
2022-10-26T11:51:36.349Z,3.53
2022-10-26T11:54:10.775Z,3.60
2022-10-26T11:56:44.827Z,3.20
2022-10-26T11:59:30.697Z,3.73
2022-10-26T12:02:28.173Z,3.60
2022-10-26T12:05:17.707Z,3.20
2022-10-26T12:08:05.749Z,3.27
2022-10-26T12:10:35.880Z,3.10
2022-10-26T12:13:57.433Z,3.80
2022-10-26T12:16:49.401Z,3.90
2022-10-26T12:19:32.789Z,3.57
2022-10-26T12:22:03.736Z,3.30
2022-10-26T12:24:39.634Z,3.27
2022-10-26T12:27:27.073Z,3.00
2022-10-26T12:30:20.098Z,3.20
2022-10-26T12:32:48.652Z,3.40
2022-10-26T12:35:35.563Z,3.13
2022-10-26T12:38:28.965Z,2.80
2022-10-26T12:41:06.518Z,3.13
2022-10-26T12:43:36.090Z,3.10
2022-10-26T12:46:26.789Z,2.87
2022-10-26T12:48:54.562Z,3.20
2022-10-26T12:51:35.165Z,3.07
2022-10-26T12:54:35.914Z,2.80
2022-10-26T12:57:28.746Z,3.17
2022-10-26T13:00:02.659Z,3.07
2022-10-26T13:02:35.475Z,3.00
2022-10-26T13:05:08.641Z,2.60
2022-10-26T13:07:40.163Z,3.30
2022-10-26T13:10:20.818Z,2.83
2022-10-26T13:13:01.209Z,2.80
2022-10-26T13:15:39.938Z,2.77
2022-10-26T13:18:19.296Z,2.87
2022-10-26T13:21:05.481Z,3.20
2022-10-26T13:23:35.662Z,2.90
2022-10-26T13:26:09.578Z,2.90
2022-10-26T13:28:39.450Z,3.00
2022-10-26T13:31:24.498Z,2.60
2022-10-26T13:33:54.574Z,2.53
2022-10-26T13:36:36.863Z,2.50
2022-10-26T13:39:12.204Z,2.70
2022-10-26T13:41:45.653Z,2.43
2022-10-26T13:44:23.780Z,2.73
2022-10-26T15:27:37.565Z,3.70
2022-10-26T15:30:24.500Z,3.63
2022-10-26T15:32:53.011Z,4.07
2022-10-26T15:35:19.880Z,3.60
2022-10-26T15:37:47.625Z,3.60
2022-10-26T15:40:14.978Z,3.80
2022-10-26T15:42:45.214Z,4.00
2022-10-26T15:45:23.217Z,3.60
2022-10-26T15:47:55.559Z,3.93
2022-10-26T15:50:28.401Z,3.83
2022-10-26T15:53:01.536Z,4.07
2022-10-26T15:55:30.440Z,3.93
2022-10-26T15:57:57.172Z,4.20
2022-10-26T16:00:23.953Z,14.33
2022-10-26T16:02:50.811Z,3.93
2022-10-26T16:05:17.562Z,4.10
2022-10-26T16:07:46.297Z,3.80
2022-10-26T16:10:17.481Z,3.60
2022-10-26T16:12:44.322Z,4.30
2022-10-26T16:15:20.414Z,3.73
2022-10-26T16:17:47.835Z,4.37
2022-10-26T16:20:18.258Z,3.20
2022-10-26T16:22:48.378Z,4.03
2022-10-26T16:25:20.946Z,3.70
2022-10-26T16:27:49.415Z,3.90
2022-10-26T16:30:17.283Z,4.60
2022-10-26T16:32:44.341Z,4.23
2022-10-26T16:35:12.764Z,4.00
2022-10-26T16:37:39.973Z,4.20
2022-10-26T16:40:08.325Z,4.80
2022-10-26T16:42:35.076Z,3.90
2022-10-26T16:45:03.017Z,4.43
2022-10-26T16:47:35.569Z,4.63
2022-10-26T16:50:03.168Z,5.40
2022-10-26T16:52:29.940Z,4.40
2022-10-26T16:54:56.883Z,4.50
2022-10-26T16:57:23.689Z,3.97
2022-10-26T16:59:50.369Z,4.53
2022-10-26T17:02:17.456Z,3.73
2022-10-26T17:04:44.253Z,3.80
2022-10-26T17:07:11.335Z,4.93
2022-10-26T17:09:38.528Z,3.93
2022-10-26T17:12:05.600Z,4.83
2022-10-26T17:14:32.752Z,4.50
2022-10-26T17:16:59.508Z,4.50
2022-10-26T17:19:26.278Z,4.70
2022-10-26T17:21:53.009Z,13.87
2022-10-26T17:24:19.747Z,14.60
2022-10-26T17:26:46.667Z,9.00
2022-10-26T17:29:13.870Z,6.70
2022-10-26T17:31:41.096Z,6.27
2022-10-26T17:34:07.862Z,7.27
2022-10-26T17:36:34.775Z,6.40
2022-10-26T17:39:01.617Z,8.00
2022-10-26T17:41:28.778Z,9.50
2022-10-26T17:43:55.508Z,11.83
2022-10-26T17:46:24.980Z,8.43
2022-10-26T17:48:56.664Z,8.00
2022-10-26T17:51:24.070Z,6.97
2022-10-26T17:53:51.124Z,7.60
2022-10-26T17:56:21.106Z,7.33
2022-10-26T17:58:55.855Z,6.33
2022-10-26T18:01:23.316Z,6.60
2022-10-26T18:03:50.890Z,5.70
2022-10-26T18:06:17.873Z,5.60
2022-10-26T18:08:45.269Z,5.90
2022-10-26T18:11:15.064Z,6.40
2022-10-26T18:13:41.952Z,5.60
2022-10-26T18:16:11.308Z,6.50
2022-10-26T18:18:39.856Z,5.57
2022-10-26T18:21:10.000Z,6.60
2022-10-26T18:23:37.400Z,6.40
2022-10-26T18:26:11.274Z,5.57
2022-10-26T18:28:40.773Z,5.90
2022-10-26T18:31:09.814Z,8.13
2022-10-26T18:33:37.080Z,11.40
2022-10-26T18:36:11.912Z,9.43
2022-10-26T18:38:42.289Z,7.50
2022-10-26T18:41:11.975Z,6.93
2022-10-26T18:43:42.996Z,25.20
2022-10-26T18:46:19.102Z,18.20
2022-10-26T18:48:48.622Z,14.33
2022-10-26T18:51:18.074Z,15.00
2022-10-26T18:53:46.077Z,9.53
2022-10-26T18:56:15.328Z,7.93
2022-10-26T18:58:44.303Z,7.40
2022-10-26T19:01:12.815Z,7.10
2022-10-26T19:03:40.454Z,6.80
2022-10-26T19:06:08.342Z,7.47
2022-10-26T19:08:35.089Z,7.60
2022-10-26T19:11:04.071Z,7.10
2022-10-26T19:13:31.325Z,7.17
2022-10-26T19:16:17.326Z,8.27
2022-10-26T19:19:01.039Z,9.10
2022-10-26T19:21:29.377Z,9.23
2022-10-26T19:23:58.437Z,10.50
2022-10-26T19:26:33.448Z,12.27
2022-10-26T19:29:04.141Z,8.03
2022-10-26T19:31:32.427Z,10.43
2022-10-26T19:34:00.257Z,10.87
2022-10-26T19:36:27.287Z,9.03
2022-10-26T19:38:55.196Z,11.00
2022-10-26T19:41:23.514Z,8.83
2022-10-26T19:43:50.799Z,8.53
2022-10-26T19:46:21.086Z,7.53
2022-10-26T19:48:56.502Z,9.27
2022-10-26T19:51:24.289Z,9.10
2022-10-26T19:53:51.255Z,8.20
2022-10-26T19:56:20.407Z,10.43
2022-10-26T19:58:48.177Z,12.83
2022-10-26T20:01:15.809Z,13.73
2022-10-26T20:03:43.183Z,9.70
2022-10-26T20:06:14.086Z,7.80
2022-10-26T20:08:43.142Z,8.27
2022-10-26T20:11:14.688Z,8.43
2022-10-26T20:13:43.844Z,8.27
2022-10-26T20:16:10.914Z,9.10
2022-10-26T20:18:39.961Z,8.63
2022-10-26T20:21:10.681Z,10.10
2022-10-26T20:23:37.725Z,9.53
2022-10-26T20:28:36.207Z,7.60
2022-10-26T20:31:02.917Z,7.53
2022-10-26T20:33:29.651Z,7.07
2022-10-26T20:36:00.538Z,7.80
2022-10-26T20:38:27.703Z,7.17
2022-10-26T20:40:57.182Z,6.77
2022-10-26T20:43:25.384Z,7.30
2022-10-26T20:45:52.561Z,8.67
2022-10-26T20:48:19.946Z,7.80
2022-10-26T20:51:05.480Z,7.60
2022-10-26T20:53:42.597Z,8.50
2022-10-26T20:56:25.901Z,9.10
2022-10-26T20:58:57.047Z,9.77
2022-10-26T21:01:32.953Z,8.37
2022-10-26T21:04:01.948Z,8.37
2022-10-26T21:06:29.825Z,8.00
2022-10-26T21:08:57.000Z,8.00
2022-10-26T21:11:25.465Z,8.70
2022-10-26T21:13:53.641Z,8.17
2022-10-26T21:16:23.331Z,7.63
2022-10-26T21:18:50.217Z,7.80
2022-10-26T21:21:16.911Z,8.40
2022-10-26T21:23:43.586Z,8.00
2022-10-26T21:26:10.828Z,9.10
2022-10-26T21:28:42.569Z,7.50
2022-10-26T21:31:11.683Z,7.80
2022-10-26T21:33:39.287Z,9.03
2022-10-26T21:36:08.971Z,7.87
2022-10-26T21:38:35.982Z,8.80
2022-10-26T21:41:07.256Z,7.73
2022-10-26T21:43:35.173Z,8.33
2022-10-26T21:46:05.072Z,7.40
2022-10-26T21:48:33.126Z,7.93
2022-10-26T21:51:08.344Z,8.03
2022-10-26T21:53:35.572Z,7.10
2022-10-26T21:56:09.682Z,7.73
2022-10-26T21:58:36.861Z,6.60
2022-10-26T22:01:07.796Z,6.80
2022-10-26T22:03:34.939Z,7.10
2022-10-26T22:06:02.157Z,6.97
2022-10-26T22:08:29.276Z,7.47
2022-10-26T22:10:56.436Z,7.13
2022-10-26T22:13:23.323Z,6.37
2022-10-26T22:16:00.006Z,6.40
2022-10-26T22:18:26.637Z,6.20
2022-10-26T22:20:59.686Z,6.77
2022-10-26T22:23:26.405Z,6.47
2022-10-26T22:25:53.416Z,6.50
2022-10-26T22:28:23.110Z,6.00
2022-10-26T22:30:49.865Z,7.40
2022-10-26T22:33:16.580Z,6.97
2022-10-26T22:35:43.607Z,6.63
2022-10-26T22:38:10.376Z,7.20
2022-10-26T22:40:37.091Z,6.50
2022-10-26T22:43:03.764Z,5.97
2022-10-26T22:45:30.460Z,6.00
2022-10-26T22:47:57.225Z,6.13
2022-10-26T22:50:23.988Z,6.67
2022-10-26T22:52:50.952Z,6.00
2022-10-26T22:55:17.865Z,7.23
2022-10-26T22:57:44.596Z,6.67
2022-10-26T23:00:11.752Z,7.87
2022-10-26T23:02:38.467Z,7.10
2022-10-26T23:05:05.646Z,6.70
2022-10-26T23:07:32.380Z,6.83
2022-10-26T23:09:59.210Z,7.33
2022-10-26T23:12:26.007Z,6.67
2022-10-26T23:14:52.699Z,7.40
2022-10-26T23:17:19.365Z,5.80
2022-10-26T23:19:46.022Z,5.23
2022-10-26T23:22:12.681Z,5.93
2022-10-26T23:24:39.332Z,6.20
2022-10-26T23:27:06.014Z,5.77
2022-10-26T23:29:32.719Z,7.30
2022-10-26T23:31:59.806Z,6.60
2022-10-26T23:34:26.459Z,6.37
2022-10-26T23:36:53.291Z,6.43
2022-10-26T23:39:19.934Z,5.53
2022-10-26T23:41:46.681Z,5.47
2022-10-26T23:44:13.390Z,5.77
2022-10-26T23:46:40.127Z,5.97
2022-10-26T23:49:06.812Z,6.10
2022-10-26T23:51:33.465Z,5.87
2022-10-26T23:54:00.226Z,5.90
2022-10-26T23:56:26.929Z,6.47
2022-10-26T23:58:53.590Z,8.33
